Flight Track Log - Related Links

Times and Time Zones

All times are in EDT time to prevent confusion due to time zone crossing. See the FSR411 flight status page for this flight to view local times or setup timezone preferences in your user account.

Time Position Orientation Groundspeed Altitude Reporting Facility
EDT Latitude Longitude Course Direction KTS MPH feet Rate Location/Type
Tue 07:05:44 AM 40.0375 -88.2047 65° Northeast 210 242 27,000  Level Chicago Center
Tue 07:06:45 AM 40.0636 -88.1308 65° Northeast 230 265 7,700 -7,820 Descending Chicago Center
Tue 07:07:46 AM 40.0919 -88.0425 67° East 258 297 11,100 3,295 Climbing Chicago Center
Tue 07:08:47 AM 40.1272 -87.9347 67° East 316 364 14,400 3,322 Climbing Chicago Center
Tue 07:09:47 AM 40.1697 -87.8069 66° East 375 432 17,800 3,273 Climbing Chicago Center
Tue 07:10:48 AM 40.2228 -87.6406 67° East 427 491 21,000 2,803 Climbing Chicago Center
Tue 07:11:49 AM 40.2728 -87.4842 67° East 462 532 23,500 2,508 Climbing Chicago Center
Tue 07:12:50 AM 40.3175 -87.3464 67° East 475 547 26,100 1,721 Climbing Chicago Center
Tue 07:13:51 AM 40.3697 -87.1814 67° East 486 559 27,000 446 Climbing Chicago Center
Tue 07:14:51 AM 40.4247 -87.0089 67° East 508 585 27,000  Level Chicago Center
Tue 07:15:52 AM 40.4908 -86.8008 67° East 513 590 27,000  Level Chicago Center
Tue 07:16:53 AM 40.5450 -86.6269 68° East 513 590 27,000  Level Chicago Center
Tue 07:17:54 AM 40.5981 -86.4533 68° East 510 587 27,000  Level Chicago Center
Tue 07:18:55 AM 40.6522 -86.2769 68° East 516 594 27,000  Level Chicago Center
Tue 07:19:56 AM 40.7017 -86.1189 68° East 512 589 27,000  Level Chicago Center
Tue 07:20:57 AM 40.7542 -85.9447 68° East 515 593 27,000 -590 Level Chicago Center
Tue 07:21:58 AM 40.8064 -85.7739 68° East 506 582 25,800 -1,415 Descending Chicago Center
Tue 07:23:00 AM 40.8664 -85.5711 69° East 499 574 24,100 -1,463 Descending Chicago Center
Tue 07:24:01 AM 40.9150 -85.4058 69° East 488 562 22,800 -1,328 Descending Chicago Center
Tue 07:25:02 AM 40.9647 -85.2406 68° East 487 560 21,400 -1,377 Descending Chicago Center
Tue 07:26:03 AM 41.0136 -85.0853 67° East 472 543 20,000 -1,328 Descending Chicago Center
Tue 07:27:04 AM 41.0606 -84.9353 67° East 452 520 18,700 -1,317 Descending Chicago Center
Tue 07:28:06 AM 41.1053 -84.7875 68° East 441 507 17,300 -1,366 Descending Chicago Center
Tue 07:29:07 AM 41.1492 -84.6456 68° East 424 488 15,900 -1,377 Descending Chicago Center
Tue 07:30:08 AM 41.1908 -84.5119 67° East 399 459 14,500 -1,317 Descending Chicago Center
Tue 07:31:10 AM 41.2383 -84.3550 68° East 386 444 13,200 -878 Descending Chicago Center
Tue 07:32:11 AM 41.2772 -84.2253 68° East 380 437 12,700 -738 Descending Chicago Center
Tue 07:33:12 AM 41.3169 -84.0917 68° East 387 445 11,700 -976 Descending Chicago Center
Tue 07:34:14 AM 41.3578 -83.9597 68° East 388 447 10,700 -919 Descending Chicago Center
Tue 07:35:03 AM 41.3867 -83.8614 69° East 379 436 10,000 -378 Descending Cleveland Center
Tue 07:36:05 AM 41.4231 -83.7339 69° East 375 432 10,000  Level Cleveland Center
Tue 07:37:07 AM 41.4625 -83.6058 68° East 373 429 10,000 69 Level Cleveland Center
Tue 07:37:32 AM 41.4931 -83.5297 62° Northeast 376 433 10,100  Climbing Cleveland Center
Tue 07:38:09 AM 41.5222 -83.4628 60° Northeast 373 429 10,000  Descending Cleveland Center
Tue 07:38:21 AM 41.5342 -83.4350 60° Northeast 371 427 10,100  Climbing Cleveland Center
Tue 07:39:16 AM 41.5767 -83.3211 63° Northeast 374 430 10,000 -108 Descending Cleveland Center
Tue 07:40:12 AM 41.6178 -83.2186 62° Northeast 373 429 9,900  Descending Cleveland Center
Tue 07:40:17 AM 41.6239 -83.2019 64° Northeast 370 426 10,000 -636 Climbing Cleveland Center
Tue 07:41:18 AM 41.6656 -83.0958 62° Northeast 282 325 9,200 -915 Descending Cleveland Center
Tue 07:42:15 AM 41.6961 -83.0222 61° Northeast 291 335 8,200 -605 Descending Cleveland Center
Tue 07:43:17 AM 41.7558 -82.9286 49° Northeast 289 333 8,000 -185 Descending Cleveland Center
Tue 07:43:20 AM 41.7575 -82.9292 346° North 281 323 8,000  Level Cleveland Center
Tue 07:44:19 AM 41.8136 -82.8564 44° Northeast 289 333 8,000  Level Cleveland Center
Tue 07:44:21 AM 41.8156 -82.8531 52° Northeast 289 333 8,000  Level Cleveland Center
Tue 07:45:21 AM 41.8706 -82.7822 44° Northeast 289 333 8,000  Level Cleveland Center
Tue 07:45:22 AM 41.8733 -82.7794 37° Northeast 286 329 8,000 -1,452 Level Cleveland Center
Tue 07:46:23 AM 41.9408 -82.7461 20° North 260 299 6,500 -1,438 Descending Cleveland Center
Tue 07:47:23 AM 42.0072 -82.7831 338° Northwest 264 304 5,100 -1,279 Descending Cleveland Center
Tue 07:47:24 AM 42.0000 -82.7792 158° South 263 303 5,200 -885 Climbing Cleveland Center
Tue 07:48:24 AM 42.0756 -82.8228 337° Northwest 265 305 4,200 -871 Descending Cleveland Center
Tue 07:48:26 AM 42.0678 -82.8167 150° Southeast 263 303 4,300 -197 Climbing Cleveland Center
Tue 07:49:25 AM 42.1419 -82.8597 337° Northwest 260 299 4,000 -290 Descending Cleveland Center
Tue 07:49:28 AM 42.1475 -82.8622 342° North 263 303 4,000 -369 Level Cleveland Center
Tue 07:50:30 AM 42.2111 -82.8975 338° Northwest 254 292 3,600 -504 Descending Cleveland Center
Tue 07:51:27 AM 42.2706 -82.9333 336° Northwest 235 270 3,000 -581 Descending Cleveland Center
Tue 07:51:32 AM 42.2711 -82.9319 62° Northeast 243 280 3,000  Level Cleveland Center
Tue 07:52:28 AM 42.3222 -82.9686 332° Northwest 201 231 3,000  Level Cleveland Center
Tue 07:52:34 AM 42.3225 -82.9664 80° East 221 254 3,000 -333 Level Cleveland Center
Tue 07:53:22 AM 42.3636 -83.0053 325° Northwest 185 213 2,700 -387 Descending Cleveland Center
Tue 07:53:36 AM 42.3686 -83.0058 355° North 204 235 2,600 -492 Descending Cleveland Center
Tue 07:54:23 AM 42.3967 -83.0408 317° Northwest 143 165 2,200 -387 Descending Cleveland Center
Tue 07:54:38 AM 42.3992 -83.0428 330° Northwest 172 198 2,200 -474 Level Cleveland Center
Tue 07:55:39 AM 42.4364 -83.0567 345° North 149 171 1,600 -617 Descending Cleveland Center
Tue 07:56:25 AM 42.4308 -83.0314 107° East 116 133 1,100 -677 Descending Cleveland Center
Tue 07:56:41 AM 42.4239 -83.0231 138° Southeast 128 147 900 -750 Descending Cleveland Center

Login

Don't have an account? Register now (free) for customized features, flight alerts, and more!